sensor_id;sensor_type;location;lat;lon;timestamp;pressure;altitude;pressure_sealevel;temperature;humidity
64616;BME280;51027;42.162;24.754;2023-05-14T00:00:12;100367.81;;;13.82;67.30
64616;BME280;51027;42.162;24.754;2023-05-14T00:02:37;100360.31;;;13.72;67.40
64616;BME280;51027;42.162;24.754;2023-05-14T00:05:03;100382.06;;;13.78;67.36
64616;BME280;51027;42.162;24.754;2023-05-14T00:07:29;100347.88;;;13.52;67.70
64616;BME280;51027;42.162;24.754;2023-05-14T00:09:56;100379.19;;;13.84;67.54
64616;BME280;51027;42.162;24.754;2023-05-14T00:12:21;100367.75;;;13.84;67.53
64616;BME280;51027;42.162;24.754;2023-05-14T00:14:46;100373.97;;;13.83;67.66
64616;BME280;51027;42.162;24.754;2023-05-14T00:17:12;100368.66;;;13.83;67.54
64616;BME280;51027;42.162;24.754;2023-05-14T00:19:37;100367.53;;;13.89;67.30
64616;BME280;51027;42.162;24.754;2023-05-14T00:22:08;100365.09;;;13.84;67.64
64616;BME280;51027;42.162;24.754;2023-05-14T00:24:34;100365.94;;;13.84;67.42
64616;BME280;51027;42.162;24.754;2023-05-14T00:27:00;100361.59;;;13.83;67.59
64616;BME280;51027;42.162;24.754;2023-05-14T00:29:26;100356.88;;;13.70;68.24
64616;BME280;51027;42.162;24.754;2023-05-14T00:31:51;100360.38;;;13.70;67.92
64616;BME280;51027;42.162;24.754;2023-05-14T00:34:17;100366.41;;;13.74;67.91
64616;BME280;51027;42.162;24.754;2023-05-14T00:36:42;100370.38;;;13.84;67.43
64616;BME280;51027;42.162;24.754;2023-05-14T00:39:08;100371.44;;;13.80;67.63
64616;BME280;51027;42.162;24.754;2023-05-14T00:41:33;100368.03;;;13.76;67.66
64616;BME280;51027;42.162;24.754;2023-05-14T00:43:59;100368.03;;;13.76;67.58
64616;BME280;51027;42.162;24.754;2023-05-14T00:46:24;100352.59;;;13.66;67.68
64616;BME280;51027;42.162;24.754;2023-05-14T00:48:50;100361.81;;;13.77;67.32
64616;BME280;51027;42.162;24.754;2023-05-14T00:51:16;100348.59;;;13.77;67.05
64616;BME280;51027;42.162;24.754;2023-05-14T00:53:43;100341.28;;;13.62;67.88
64616;BME280;51027;42.162;24.754;2023-05-14T00:56:09;100335.94;;;13.64;68.05
64616;BME280;51027;42.162;24.754;2023-05-14T00:58:35;100334.16;;;13.64;68.12
64616;BME280;51027;42.162;24.754;2023-05-14T01:01:01;100334.69;;;13.72;67.90
64616;BME280;51027;42.162;24.754;2023-05-14T01:03:28;100315.63;;;13.64;67.88
64616;BME280;51027;42.162;24.754;2023-05-14T01:06:00;100327.31;;;13.80;67.48
64616;BME280;51027;42.162;24.754;2023-05-14T01:08:39;100334.75;;;13.71;67.78
64616;BME280;51027;42.162;24.754;2023-05-14T01:11:12;100335.06;;;13.63;68.31
64616;BME280;51027;42.162;24.754;2023-05-14T01:16:32;100303.63;;;13.55;68.47
64616;BME280;51027;42.162;24.754;2023-05-14T01:18:59;100313.22;;;13.58;68.77
64616;BME280;51027;42.162;24.754;2023-05-14T01:21:36;100311.16;;;13.44;67.90
64616;BME280;51027;42.162;24.754;2023-05-14T01:24:03;100315.00;;;13.58;67.43
64616;BME280;51027;42.162;24.754;2023-05-14T01:26:28;100312.56;;;13.53;67.71
64616;BME280;51027;42.162;24.754;2023-05-14T01:29:20;100314.53;;;13.48;67.73
64616;BME280;51027;42.162;24.754;2023-05-14T01:31:46;100318.09;;;13.47;67.80
64616;BME280;51027;42.162;24.754;2023-05-14T01:34:13;100320.63;;;13.50;67.98
64616;BME280;51027;42.162;24.754;2023-05-14T01:36:40;100319.88;;;13.46;68.15
64616;BME280;51027;42.162;24.754;2023-05-14T01:39:06;100317.75;;;13.34;68.61
64616;BME280;51027;42.162;24.754;2023-05-14T01:41:37;100311.34;;;13.40;68.63
64616;BME280;51027;42.162;24.754;2023-05-14T01:44:03;100307.88;;;13.38;68.63
64616;BME280;51027;42.162;24.754;2023-05-14T01:46:32;100280.34;;;13.21;68.95
64616;BME280;51027;42.162;24.754;2023-05-14T01:48:58;100287.72;;;13.35;68.98
64616;BME280;51027;42.162;24.754;2023-05-14T01:51:23;100295.59;;;13.37;69.44
64616;BME280;51027;42.162;24.754;2023-05-14T01:53:49;100285.34;;;13.29;69.14
64616;BME280;51027;42.162;24.754;2023-05-14T01:56:16;100302.09;;;13.28;69.27
64616;BME280;51027;42.162;24.754;2023-05-14T01:58:41;100294.91;;;13.32;69.33
64616;BME280;51027;42.162;24.754;2023-05-14T02:01:07;100275.00;;;13.23;69.67
64616;BME280;51027;42.162;24.754;2023-05-14T02:03:32;100291.25;;;13.12;69.87
64616;BME280;51027;42.162;24.754;2023-05-14T02:05:57;100294.06;;;13.08;70.00
64616;BME280;51027;42.162;24.754;2023-05-14T02:08:23;100295.81;;;13.09;70.34
64616;BME280;51027;42.162;24.754;2023-05-14T02:10:48;100308.53;;;12.99;70.74
64616;BME280;51027;42.162;24.754;2023-05-14T02:13:14;100303.00;;;13.05;70.88
64616;BME280;51027;42.162;24.754;2023-05-14T02:15:39;100313.63;;;13.04;70.56
64616;BME280;51027;42.162;24.754;2023-05-14T02:18:05;100318.41;;;12.94;71.10
64616;BME280;51027;42.162;24.754;2023-05-14T02:20:30;100321.69;;;13.01;70.62
64616;BME280;51027;42.162;24.754;2023-05-14T02:22:55;100308.97;;;12.88;71.10
64616;BME280;51027;42.162;24.754;2023-05-14T02:25:21;100314.91;;;12.93;71.16
64616;BME280;51027;42.162;24.754;2023-05-14T02:27:46;100318.91;;;12.82;71.15
64616;BME280;51027;42.162;24.754;2023-05-14T02:30:12;100313.38;;;12.88;70.77
64616;BME280;51027;42.162;24.754;2023-05-14T02:32:37;100306.41;;;12.85;71.41
64616;BME280;51027;42.162;24.754;2023-05-14T02:35:03;100310.91;;;12.83;71.18
64616;BME280;51027;42.162;24.754;2023-05-14T02:37:28;100305.81;;;12.79;71.25
64616;BME280;51027;42.162;24.754;2023-05-14T02:39:53;100314.53;;;12.81;71.43
64616;BME280;51027;42.162;24.754;2023-05-14T02:42:19;100311.44;;;12.69;71.64
64616;BME280;51027;42.162;24.754;2023-05-14T02:44:44;100311.31;;;12.73;71.40
64616;BME280;51027;42.162;24.754;2023-05-14T02:47:10;100312.06;;;12.76;71.58
64616;BME280;51027;42.162;24.754;2023-05-14T02:49:35;100314.38;;;12.62;71.88
64616;BME280;51027;42.162;24.754;2023-05-14T02:52:00;100335.16;;;12.71;71.86
64616;BME280;51027;42.162;24.754;2023-05-14T02:54:26;100346.78;;;12.67;71.96
64616;BME280;51027;42.162;24.754;2023-05-14T02:56:51;100335.38;;;12.65;71.54
64616;BME280;51027;42.162;24.754;2023-05-14T02:59:16;100350.03;;;12.74;71.59
64616;BME280;51027;42.162;24.754;2023-05-14T03:01:42;100327.59;;;12.62;71.71
64616;BME280;51027;42.162;24.754;2023-05-14T03:04:07;100347.69;;;12.66;72.21
64616;BME280;51027;42.162;24.754;2023-05-14T03:06:33;100351.66;;;12.78;71.78
64616;BME280;51027;42.162;24.754;2023-05-14T03:08:58;100354.13;;;12.82;71.88
64616;BME280;51027;42.162;24.754;2023-05-14T03:11:24;100374.47;;;12.80;72.04
64616;BME280;51027;42.162;24.754;2023-05-14T03:13:49;100366.41;;;12.83;71.82
64616;BME280;51027;42.162;24.754;2023-05-14T03:16:15;100358.63;;;12.80;72.25
64616;BME280;51027;42.162;24.754;2023-05-14T03:18:40;100355.22;;;12.77;72.67
64616;BME280;51027;42.162;24.754;2023-05-14T03:21:05;100348.44;;;12.69;72.84
64616;BME280;51027;42.162;24.754;2023-05-14T03:23:33;100355.34;;;12.74;72.80
64616;BME280;51027;42.162;24.754;2023-05-14T03:25:59;100342.41;;;12.66;73.34
64616;BME280;51027;42.162;24.754;2023-05-14T03:28:25;100339.00;;;12.62;73.14
64616;BME280;51027;42.162;24.754;2023-05-14T03:30:50;100365.91;;;12.74;73.20
64616;BME280;51027;42.162;24.754;2023-05-14T03:33:16;100361.72;;;12.68;73.21
64616;BME280;51027;42.162;24.754;2023-05-14T03:35:41;100370.06;;;12.57;73.61
64616;BME280;51027;42.162;24.754;2023-05-14T03:38:07;100367.34;;;12.59;74.15
64616;BME280;51027;42.162;24.754;2023-05-14T03:40:32;100363.31;;;12.72;73.32
64616;BME280;51027;42.162;24.754;2023-05-14T03:42:57;100375.50;;;12.76;74.05
64616;BME280;51027;42.162;24.754;2023-05-14T03:45:23;100383.41;;;12.76;73.79
64616;BME280;51027;42.162;24.754;2023-05-14T03:47:48;100370.13;;;12.54;74.54
64616;BME280;51027;42.162;24.754;2023-05-14T03:50:14;100376.06;;;12.61;74.17
64616;BME280;51027;42.162;24.754;2023-05-14T03:52:39;100387.22;;;12.69;74.47
64616;BME280;51027;42.162;24.754;2023-05-14T03:55:05;100381.69;;;12.75;74.82
64616;BME280;51027;42.162;24.754;2023-05-14T03:57:31;100386.38;;;12.68;75.07
64616;BME280;51027;42.162;24.754;2023-05-14T03:59:56;100372.56;;;12.60;75.21
64616;BME280;51027;42.162;24.754;2023-05-14T04:02:22;100379.25;;;12.71;75.27
64616;BME280;51027;42.162;24.754;2023-05-14T04:04:47;100371.97;;;12.77;75.19
64616;BME280;51027;42.162;24.754;2023-05-14T04:07:13;100378.19;;;12.75;75.19
64616;BME280;51027;42.162;24.754;2023-05-14T04:09:38;100365.50;;;12.61;75.34
64616;BME280;51027;42.162;24.754;2023-05-14T04:12:04;100383.53;;;12.73;74.75
64616;BME280;51027;42.162;24.754;2023-05-14T04:14:29;100371.13;;;12.75;74.73
64616;BME280;51027;42.162;24.754;2023-05-14T04:16:55;100377.97;;;12.81;75.15
64616;BME280;51027;42.162;24.754;2023-05-14T04:19:20;100375.91;;;12.89;74.82
64616;BME280;51027;42.162;24.754;2023-05-14T04:21:46;100378.22;;;12.98;74.33
64616;BME280;51027;42.162;24.754;2023-05-14T04:24:11;100389.00;;;12.92;74.64
64616;BME280;51027;42.162;24.754;2023-05-14T04:26:36;100378.72;;;12.84;74.89
64616;BME280;51027;42.162;24.754;2023-05-14T04:29:02;100366.47;;;12.82;75.27
64616;BME280;51027;42.162;24.754;2023-05-14T04:31:28;100364.03;;;12.77;75.16
64616;BME280;51027;42.162;24.754;2023-05-14T04:33:54;100360.34;;;12.81;75.15
64616;BME280;51027;42.162;24.754;2023-05-14T04:36:19;100380.22;;;12.91;75.30
64616;BME280;51027;42.162;24.754;2023-05-14T04:38:45;100365.53;;;13.06;74.61
64616;BME280;51027;42.162;24.754;2023-05-14T04:41:10;100386.88;;;13.25;74.83
64616;BME280;51027;42.162;24.754;2023-05-14T04:43:36;100366.84;;;13.19;74.77
64616;BME280;51027;42.162;24.754;2023-05-14T04:46:01;100398.72;;;13.15;75.56
64616;BME280;51027;42.162;24.754;2023-05-14T04:48:27;100410.34;;;13.11;76.15
64616;BME280;51027;42.162;24.754;2023-05-14T04:50:52;100410.94;;;13.19;75.68
64616;BME280;51027;42.162;24.754;2023-05-14T04:53:18;100400.19;;;13.23;75.96
64616;BME280;51027;42.162;24.754;2023-05-14T04:55:43;100398.97;;;13.32;75.71
64616;BME280;51027;42.162;24.754;2023-05-14T04:58:08;100403.81;;;13.43;76.01
64616;BME280;51027;42.162;24.754;2023-05-14T05:00:34;100395.97;;;13.41;76.11
64616;BME280;51027;42.162;24.754;2023-05-14T05:02:59;100389.81;;;13.41;76.87
64616;BME280;51027;42.162;24.754;2023-05-14T05:05:25;100360.50;;;13.45;76.43
64616;BME280;51027;42.162;24.754;2023-05-14T05:07:50;100387.16;;;13.63;76.34
64616;BME280;51027;42.162;24.754;2023-05-14T05:10:15;100389.66;;;13.66;76.86
64616;BME280;51027;42.162;24.754;2023-05-14T05:12:41;100410.34;;;13.56;77.82
64616;BME280;51027;42.162;24.754;2023-05-14T05:15:07;100401.41;;;13.59;77.47
64616;BME280;51027;42.162;24.754;2023-05-14T05:17:33;100402.47;;;13.54;77.45
64616;BME280;51027;42.162;24.754;2023-05-14T05:19:59;100381.31;;;13.54;77.16
64616;BME280;51027;42.162;24.754;2023-05-14T05:22:25;100374.41;;;13.50;77.47
64616;BME280;51027;42.162;24.754;2023-05-14T05:24:50;100382.28;;;13.52;77.47
64616;BME280;51027;42.162;24.754;2023-05-14T05:27:16;100373.94;;;13.41;77.25
64616;BME280;51027;42.162;24.754;2023-05-14T05:29:43;100396.69;;;13.45;77.34
64616;BME280;51027;42.162;24.754;2023-05-14T05:32:08;100410.97;;;13.63;76.87
64616;BME280;51027;42.162;24.754;2023-05-14T05:34:34;100416.13;;;13.66;75.96
64616;BME280;51027;42.162;24.754;2023-05-14T05:37:00;100414.47;;;13.63;76.04
64616;BME280;51027;42.162;24.754;2023-05-14T05:39:26;100388.75;;;13.45;75.98
64616;BME280;51027;42.162;24.754;2023-05-14T05:41:53;100437.09;;;13.72;76.74
64616;BME280;51027;42.162;24.754;2023-05-14T05:44:18;100432.38;;;13.78;76.37
64616;BME280;51027;42.162;24.754;2023-05-14T05:46:43;100435.53;;;13.88;76.10
64616;BME280;51027;42.162;24.754;2023-05-14T05:49:09;100429.28;;;13.89;76.46
64616;BME280;51027;42.162;24.754;2023-05-14T05:51:34;100409.69;;;13.73;75.56
64616;BME280;51027;42.162;24.754;2023-05-14T05:54:00;100430.13;;;13.91;75.87
64616;BME280;51027;42.162;24.754;2023-05-14T05:56:25;100426.41;;;13.95;75.97
64616;BME280;51027;42.162;24.754;2023-05-14T05:58:51;100426.22;;;14.00;75.82
64616;BME280;51027;42.162;24.754;2023-05-14T06:01:16;100451.44;;;14.08;76.10
64616;BME280;51027;42.162;24.754;2023-05-14T06:03:41;100457.81;;;14.04;76.11
64616;BME280;51027;42.162;24.754;2023-05-14T06:06:07;100445.94;;;13.93;76.01
64616;BME280;51027;42.162;24.754;2023-05-14T06:08:32;100461.47;;;14.02;75.59
64616;BME280;51027;42.162;24.754;2023-05-14T06:10:58;100466.81;;;14.00;75.12
64616;BME280;51027;42.162;24.754;2023-05-14T06:13:23;100468.84;;;13.94;74.93
64616;BME280;51027;42.162;24.754;2023-05-14T06:15:48;100475.00;;;13.94;74.71
64616;BME280;51027;42.162;24.754;2023-05-14T06:18:14;100464.72;;;13.87;75.33
64616;BME280;51027;42.162;24.754;2023-05-14T06:20:39;100474.78;;;14.00;75.00
64616;BME280;51027;42.162;24.754;2023-05-14T06:23:05;100479.44;;;13.94;75.82
64616;BME280;51027;42.162;24.754;2023-05-14T06:25:32;100479.44;;;13.94;75.65
64616;BME280;51027;42.162;24.754;2023-05-14T06:27:57;100484.53;;;13.98;75.08
64616;BME280;51027;42.162;24.754;2023-05-14T06:30:23;100488.25;;;13.94;75.42
64616;BME280;51027;42.162;24.754;2023-05-14T06:32:48;100490.09;;;13.92;75.65
64616;BME280;51027;42.162;24.754;2023-05-14T06:35:13;100483.50;;;14.02;74.99
64616;BME280;51027;42.162;24.754;2023-05-14T06:37:39;100509.06;;;14.03;75.87
64616;BME280;51027;42.162;24.754;2023-05-14T06:40:05;100515.38;;;13.99;76.74
64616;BME280;51027;42.162;24.754;2023-05-14T06:42:30;100522.31;;;13.81;77.33
64616;BME280;51027;42.162;24.754;2023-05-14T06:44:56;100513.84;;;13.72;80.30
64616;BME280;51027;42.162;24.754;2023-05-14T06:47:21;100532.47;;;13.69;80.43
64616;BME280;51027;42.162;24.754;2023-05-14T06:49:46;100541.31;;;13.69;81.29
64616;BME280;51027;42.162;24.754;2023-05-14T06:52:12;100539.22;;;13.77;83.79
64616;BME280;51027;42.162;24.754;2023-05-14T06:54:37;100535.50;;;13.60;87.39
64616;BME280;51027;42.162;24.754;2023-05-14T06:57:03;100547.69;;;13.64;89.11
64616;BME280;51027;42.162;24.754;2023-05-14T06:59:29;100549.13;;;13.72;90.73
64616;BME280;51027;42.162;24.754;2023-05-14T07:01:54;100543.19;;;13.66;93.99
64616;BME280;51027;42.162;24.754;2023-05-14T07:04:20;100548.75;;;13.60;94.89
64616;BME280;51027;42.162;24.754;2023-05-14T07:06:45;100492.47;;;13.31;94.65
64616;BME280;51027;42.162;24.754;2023-05-14T07:09:10;100540.84;;;13.58;94.23
64616;BME280;51027;42.162;24.754;2023-05-14T07:11:36;100533.31;;;13.47;99.66
64616;BME280;51027;42.162;24.754;2023-05-14T07:14:01;100530.09;;;13.39;100.00
64616;BME280;51027;42.162;24.754;2023-05-14T07:16:26;100514.25;;;13.38;100.00
64616;BME280;51027;42.162;24.754;2023-05-14T07:18:52;100520.78;;;13.29;100.00
64616;BME280;51027;42.162;24.754;2023-05-14T07:21:18;100495.59;;;13.17;100.00
64616;BME280;51027;42.162;24.754;2023-05-14T07:23:43;100518.22;;;13.26;100.00
64616;BME280;51027;42.162;24.754;2023-05-14T07:26:09;100499.34;;;13.12;100.00
64616;BME280;51027;42.162;24.754;2023-05-14T07:28:34;100508.06;;;12.90;100.00
64616;BME280;51027;42.162;24.754;2023-05-14T07:31:00;100492.06;;;12.93;100.00
64616;BME280;51027;42.162;24.754;2023-05-14T07:33:25;100485.31;;;12.85;100.00
64616;BME280;51027;42.162;24.754;2023-05-14T07:35:51;100457.78;;;12.67;100.00
64616;BME280;51027;42.162;24.754;2023-05-14T07:38:18;100478.00;;;12.93;100.00
64616;BME280;51027;42.162;24.754;2023-05-14T07:40:44;100495.91;;;13.10;100.00
64616;BME280;51027;42.162;24.754;2023-05-14T07:43:09;100495.19;;;13.05;100.00
64616;BME280;51027;42.162;24.754;2023-05-14T07:45:35;100505.06;;;13.00;100.00
64616;BME280;51027;42.162;24.754;2023-05-14T07:48:01;100508.09;;;12.89;100.00
64616;BME280;51027;42.162;24.754;2023-05-14T07:50:27;100518.63;;;12.90;100.00
64616;BME280;51027;42.162;24.754;2023-05-14T07:52:52;100517.97;;;12.84;100.00
64616;BME280;51027;42.162;24.754;2023-05-14T07:55:17;100523.25;;;12.84;100.00
64616;BME280;51027;42.162;24.754;2023-05-14T07:57:43;100524.13;;;12.84;100.00
64616;BME280;51027;42.162;24.754;2023-05-14T08:00:08;100521.66;;;12.80;100.00
64616;BME280;51027;42.162;24.754;2023-05-14T08:02:35;100490.44;;;12.64;100.00
64616;BME280;51027;42.162;24.754;2023-05-14T08:05:00;100496.34;;;12.48;100.00
64616;BME280;51027;42.162;24.754;2023-05-14T08:07:25;100499.53;;;12.57;100.00
64616;BME280;51027;42.162;24.754;2023-05-14T08:09:53;100483.50;;;12.62;100.00
64616;BME280;51027;42.162;24.754;2023-05-14T08:12:18;100503.41;;;12.72;100.00
64616;BME280;51027;42.162;24.754;2023-05-14T08:14:44;100512.34;;;12.93;100.00
64616;BME280;51027;42.162;24.754;2023-05-14T08:17:10;100516.91;;;12.89;100.00
64616;BME280;51027;42.162;24.754;2023-05-14T08:19:35;100520.72;;;12.81;100.00
64616;BME280;51027;42.162;24.754;2023-05-14T08:22:01;100541.75;;;12.84;100.00
64616;BME280;51027;42.162;24.754;2023-05-14T08:24:26;100548.72;;;12.86;100.00
64616;BME280;51027;42.162;24.754;2023-05-14T08:26:51;100558.72;;;12.78;100.00
64616;BME280;51027;42.162;24.754;2023-05-14T08:29:17;100567.00;;;12.67;100.00
64616;BME280;51027;42.162;24.754;2023-05-14T08:31:42;100567.50;;;12.52;100.00
64616;BME280;51027;42.162;24.754;2023-05-14T08:34:08;100585.16;;;12.52;100.00
64616;BME280;51027;42.162;24.754;2023-05-14T08:36:33;100594.75;;;12.54;100.00
64616;BME280;51027;42.162;24.754;2023-05-14T08:38:59;100577.28;;;12.50;100.00
64616;BME280;51027;42.162;24.754;2023-05-14T08:41:24;100592.41;;;12.45;100.00
64616;BME280;51027;42.162;24.754;2023-05-14T08:43:56;100582.91;;;12.39;100.00
64616;BME280;51027;42.162;24.754;2023-05-14T08:46:23;100590.78;;;12.41;100.00
64616;BME280;51027;42.162;24.754;2023-05-14T08:48:55;100573.50;;;12.31;100.00
64616;BME280;51027;42.162;24.754;2023-05-14T08:51:23;100576.31;;;12.26;100.00
64616;BME280;51027;42.162;24.754;2023-05-14T08:53:50;100592.09;;;12.28;100.00
64616;BME280;51027;42.162;24.754;2023-05-14T08:56:16;100583.59;;;12.18;100.00
64616;BME280;51027;42.162;24.754;2023-05-14T08:58:42;100580.91;;;12.20;100.00
64616;BME280;51027;42.162;24.754;2023-05-14T09:01:08;100587.28;;;12.13;100.00
64616;BME280;51027;42.162;24.754;2023-05-14T09:03:35;100560.97;;;12.09;100.00
64616;BME280;51027;42.162;24.754;2023-05-14T09:06:01;100561.31;;;12.27;100.00
64616;BME280;51027;42.162;24.754;2023-05-14T09:08:27;100539.09;;;12.32;100.00
64616;BME280;51027;42.162;24.754;2023-05-14T09:10:52;100550.47;;;12.34;100.00
64616;BME280;51027;42.162;24.754;2023-05-14T09:13:18;100568.38;;;12.53;100.00
64616;BME280;51027;42.162;24.754;2023-05-14T09:15:44;100473.47;;;11.94;100.00
64616;BME280;51027;42.162;24.754;2023-05-14T09:18:10;100557.31;;;12.66;100.00
64616;BME280;51027;42.162;24.754;2023-05-14T09:20:36;100559.09;;;12.66;100.00
64616;BME280;51027;42.162;24.754;2023-05-14T09:23:02;100563.94;;;12.53;100.00
64616;BME280;51027;42.162;24.754;2023-05-14T09:25:31;100550.97;;;12.47;100.00
64616;BME280;51027;42.162;24.754;2023-05-14T09:27:57;100548.09;;;12.27;100.00
64616;BME280;51027;42.162;24.754;2023-05-14T09:30:23;100552.00;;;12.42;100.00
64616;BME280;51027;42.162;24.754;2023-05-14T09:32:52;100552.00;;;12.42;100.00
64616;BME280;51027;42.162;24.754;2023-05-14T09:35:27;100554.53;;;12.45;100.00
64616;BME280;51027;42.162;24.754;2023-05-14T09:37:53;100554.59;;;12.43;100.00
64616;BME280;51027;42.162;24.754;2023-05-14T09:40:21;100554.50;;;12.46;100.00
64616;BME280;51027;42.162;24.754;2023-05-14T09:42:47;100558.16;;;12.42;100.00
64616;BME280;51027;42.162;24.754;2023-05-14T09:45:13;100558.09;;;12.44;100.00
64616;BME280;51027;42.162;24.754;2023-05-14T09:47:39;100535.25;;;12.43;100.00
64616;BME280;51027;42.162;24.754;2023-05-14T09:50:06;100513.44;;;12.36;100.00
64616;BME280;51027;42.162;24.754;2023-05-14T09:52:32;100493.44;;;12.29;100.00
64616;BME280;51027;42.162;24.754;2023-05-14T09:54:58;100493.88;;;12.68;100.00
64616;BME280;51027;42.162;24.754;2023-05-14T09:57:24;100501.63;;;12.73;100.00
64616;BME280;51027;42.162;24.754;2023-05-14T09:59:51;100506.78;;;12.77;100.00
64616;BME280;51027;42.162;24.754;2023-05-14T10:02:29;100501.38;;;12.80;100.00
64616;BME280;51027;42.162;24.754;2023-05-14T10:04:56;100501.66;;;12.96;100.00
64616;BME280;51027;42.162;24.754;2023-05-14T10:07:38;100493.91;;;12.91;100.00
64616;BME280;51027;42.162;24.754;2023-05-14T10:10:07;100500.00;;;12.93;100.00
64616;BME280;51027;42.162;24.754;2023-05-14T10:12:38;100502.97;;;12.84;100.00
64616;BME280;51027;42.162;24.754;2023-05-14T10:15:11;100510.09;;;12.82;100.00
64616;BME280;51027;42.162;24.754;2023-05-14T10:17:39;100502.69;;;12.92;100.00
64616;BME280;51027;42.162;24.754;2023-05-14T10:20:08;100475.00;;;12.79;100.00
64616;BME280;51027;42.162;24.754;2023-05-14T10:22:36;100487.66;;;12.69;100.00
64616;BME280;51027;42.162;24.754;2023-05-14T10:25:02;100503.88;;;12.83;100.00
64616;BME280;51027;42.162;24.754;2023-05-14T10:27:28;100504.31;;;12.71;100.00
64616;BME280;51027;42.162;24.754;2023-05-14T10:29:54;100493.53;;;12.52;100.00
64616;BME280;51027;42.162;24.754;2023-05-14T10:32:24;100491.81;;;12.51;100.00
64616;BME280;51027;42.162;24.754;2023-05-14T10:34:51;100501.94;;;12.63;100.00
64616;BME280;51027;42.162;24.754;2023-05-14T10:37:18;100491.31;;;12.65;100.00
64616;BME280;51027;42.162;24.754;2023-05-14T10:44:56;100482.25;;;12.72;100.00
64616;BME280;51027;42.162;24.754;2023-05-14T10:47:25;100471.69;;;12.72;100.00
64616;BME280;51027;42.162;24.754;2023-05-14T10:49:53;100466.13;;;12.80;100.00
64616;BME280;51027;42.162;24.754;2023-05-14T10:52:20;100455.16;;;12.90;100.00
64616;BME280;51027;42.162;24.754;2023-05-14T10:54:58;100454.03;;;12.97;100.00
64616;BME280;51027;42.162;24.754;2023-05-14T10:57:27;100448.38;;;13.07;100.00
64616;BME280;51027;42.162;24.754;2023-05-14T10:59:54;100437.59;;;13.13;100.00
64616;BME280;51027;42.162;24.754;2023-05-14T11:02:23;100442.44;;;13.25;100.00
64616;BME280;51027;42.162;24.754;2023-05-14T11:05:01;100454.53;;;13.32;100.00
64616;BME280;51027;42.162;24.754;2023-05-14T11:07:37;100459.00;;;13.30;100.00
64616;BME280;51027;42.162;24.754;2023-05-14T11:10:04;100438.50;;;13.12;100.00
64616;BME280;51027;42.162;24.754;2023-05-14T11:12:32;100403.19;;;13.36;100.00
64616;BME280;51027;42.162;24.754;2023-05-14T11:14:59;100448.75;;;14.10;100.00
64616;BME280;51027;42.162;24.754;2023-05-14T11:17:26;100442.50;;;13.91;100.00
64616;BME280;51027;42.162;24.754;2023-05-14T11:19:52;100438.06;;;13.91;100.00
64616;BME280;51027;42.162;24.754;2023-05-14T11:22:18;100415.44;;;14.04;100.00
64616;BME280;51027;42.162;24.754;2023-05-14T11:24:43;100424.47;;;14.21;100.00
64616;BME280;51027;42.162;24.754;2023-05-14T11:27:09;100435.16;;;13.97;100.00
64616;BME280;51027;42.162;24.754;2023-05-14T11:29:36;100437.41;;;14.06;100.00
64616;BME280;51027;42.162;24.754;2023-05-14T11:32:04;100439.94;;;14.09;100.00
64616;BME280;51027;42.162;24.754;2023-05-14T11:34:30;100411.88;;;13.83;100.00
64616;BME280;51027;42.162;24.754;2023-05-14T11:36:56;100414.91;;;13.74;100.00
64616;BME280;51027;42.162;24.754;2023-05-14T11:39:21;100426.34;;;13.75;100.00
64616;BME280;51027;42.162;24.754;2023-05-14T11:41:46;100445.44;;;13.83;100.00
64616;BME280;51027;42.162;24.754;2023-05-14T11:44:12;100430.41;;;13.83;100.00
64616;BME280;51027;42.162;24.754;2023-05-14T11:46:37;100437.69;;;14.00;100.00
64616;BME280;51027;42.162;24.754;2023-05-14T11:49:03;100436.63;;;14.04;100.00
64616;BME280;51027;42.162;24.754;2023-05-14T11:51:29;100438.75;;;14.17;100.00
64616;BME280;51027;42.162;24.754;2023-05-14T11:53:54;100429.25;;;14.33;100.00
64616;BME280;51027;42.162;24.754;2023-05-14T11:56:21;100432.25;;;14.46;100.00
64616;BME280;51027;42.162;24.754;2023-05-14T11:58:54;100435.78;;;14.24;100.00
64616;BME280;51027;42.162;24.754;2023-05-14T12:01:22;100436.28;;;14.54;100.00
64616;BME280;51027;42.162;24.754;2023-05-14T12:03:49;100436.44;;;14.51;100.00
64616;BME280;51027;42.162;24.754;2023-05-14T12:06:14;100436.56;;;14.48;100.00
64616;BME280;51027;42.162;24.754;2023-05-14T12:08:39;100450.91;;;14.43;100.00
64616;BME280;51027;42.162;24.754;2023-05-14T12:11:05;100445.94;;;14.35;100.00
64616;BME280;51027;42.162;24.754;2023-05-14T12:13:31;100445.47;;;14.25;100.00
64616;BME280;51027;42.162;24.754;2023-05-14T12:15:59;100429.34;;;14.30;100.00
64616;BME280;51027;42.162;24.754;2023-05-14T12:18:28;100416.91;;;14.11;100.00
64616;BME280;51027;42.162;24.754;2023-05-14T12:20:54;100418.16;;;14.23;100.00
64616;BME280;51027;42.162;24.754;2023-05-14T12:23:30;100412.13;;;14.20;100.00
64616;BME280;51027;42.162;24.754;2023-05-14T12:26:03;100390.81;;;14.02;100.00
64616;BME280;51027;42.162;24.754;2023-05-14T12:28:30;100407.38;;;14.28;100.00
64616;BME280;51027;42.162;24.754;2023-05-14T12:30:56;100408.56;;;14.21;100.00
64616;BME280;51027;42.162;24.754;2023-05-14T12:33:22;100401.81;;;14.13;100.00
64616;BME280;51027;42.162;24.754;2023-05-14T12:35:57;100389.22;;;14.19;100.00
64616;BME280;51027;42.162;24.754;2023-05-14T12:38:26;100376.50;;;14.27;100.00